createdAt,value
2022-08-11T00:01:36.998Z,18.80
2022-08-11T00:04:05.792Z,19.00
2022-08-11T00:06:35.383Z,18.90
2022-08-11T00:09:05.582Z,18.90
2022-08-11T00:11:41.421Z,18.80
2022-08-11T00:14:21.580Z,18.90
2022-08-11T00:17:07.794Z,18.90
2022-08-11T00:20:13.846Z,18.80
2022-08-11T00:22:30.448Z,18.80
2022-08-11T00:25:02.101Z,18.80
2022-08-11T00:27:34.772Z,18.80
2022-08-11T00:30:02.333Z,18.70
2022-08-11T00:32:30.719Z,18.50
2022-08-11T00:35:50.908Z,18.60
2022-08-11T00:37:54.755Z,18.60
2022-08-11T00:40:37.831Z,18.50
2022-08-11T00:43:21.346Z,18.60
2022-08-11T00:46:12.670Z,18.40
2022-08-11T00:49:17.983Z,18.40
2022-08-11T00:52:04.909Z,18.40
2022-08-11T00:54:58.005Z,18.20
2022-08-11T00:57:36.320Z,18.20
2022-08-11T01:00:11.101Z,18.10
2022-08-11T01:03:02.593Z,18.00
2022-08-11T01:05:41.868Z,18.00
2022-08-11T01:08:26.536Z,18.00
2022-08-11T01:11:35.126Z,17.80
2022-08-11T01:14:33.829Z,17.80
2022-08-11T01:17:26.690Z,17.70
2022-08-11T01:20:45.904Z,17.50
2022-08-11T01:23:07.294Z,17.40
2022-08-11T01:25:57.101Z,17.30
2022-08-11T01:29:08.847Z,17.20
2022-08-11T01:31:50.490Z,17.10
2022-08-11T01:34:59.498Z,17.00
2022-08-11T01:37:41.522Z,17.00
2022-08-11T01:40:40.997Z,16.80
2022-08-11T01:43:47.609Z,16.80
2022-08-11T01:46:14.500Z,16.70
2022-08-11T01:50:06.445Z,16.60
2022-08-11T01:52:18.745Z,16.50
2022-08-11T01:55:18.297Z,16.40
2022-08-11T01:57:55.120Z,16.30
2022-08-11T02:00:29.048Z,16.30
2022-08-11T02:03:08.867Z,16.20
2022-08-11T02:05:44.733Z,16.20
2022-08-11T02:08:33.175Z,16.10
2022-08-11T02:11:35.255Z,16.10
2022-08-11T02:14:24.203Z,16.00
2022-08-11T02:17:03.058Z,15.90
2022-08-11T02:20:09.483Z,15.80
2022-08-11T02:23:01.606Z,15.90
2022-08-11T02:25:41.308Z,15.80
2022-08-11T02:28:28.931Z,15.70
2022-08-11T02:32:24.052Z,15.70
2022-08-11T02:35:00.558Z,15.60
2022-08-11T02:37:34.906Z,15.40
2022-08-11T02:40:25.841Z,15.50
2022-08-11T02:43:04.600Z,15.40
2022-08-11T02:45:39.959Z,15.30
2022-08-11T02:48:33.366Z,15.30
2022-08-11T02:51:37.807Z,15.30
2022-08-11T02:54:12.223Z,15.30
2022-08-11T02:57:00.715Z,15.20
2022-08-11T03:00:00.402Z,15.20
2022-08-11T03:02:49.126Z,15.20
2022-08-11T03:05:27.450Z,15.10
2022-08-11T03:08:03.194Z,15.10
2022-08-11T03:11:19.934Z,14.90
2022-08-11T03:14:18.421Z,15.00
2022-08-11T03:17:10.050Z,14.80
2022-08-11T03:19:46.184Z,14.80
2022-08-11T03:22:45.622Z,14.70
2022-08-11T03:25:51.126Z,14.70
2022-08-11T03:28:32.964Z,14.70
2022-08-11T03:31:05.429Z,14.50
2022-08-11T03:34:08.394Z,14.50
2022-08-11T03:37:16.030Z,14.60
2022-08-11T03:40:06.567Z,14.50
2022-08-11T03:42:42.467Z,14.50
2022-08-11T03:45:40.832Z,14.40
2022-08-11T03:48:31.963Z,14.40
2022-08-11T03:51:14.040Z,14.50
2022-08-11T03:53:46.658Z,14.50
2022-08-11T03:56:42.026Z,14.40
2022-08-11T03:59:17.583Z,14.40
2022-08-11T04:02:22.531Z,14.30
2022-08-11T04:05:31.824Z,14.30
2022-08-11T04:08:11.348Z,14.30
2022-08-11T04:11:06.862Z,14.10
2022-08-11T04:13:52.423Z,14.20
2022-08-11T04:17:06.768Z,14.10
2022-08-11T04:19:50.493Z,14.10
2022-08-11T04:22:43.554Z,14.10
2022-08-11T04:25:22.497Z,14.00
2022-08-11T04:28:08.263Z,14.10
2022-08-11T04:31:11.210Z,13.90
2022-08-11T04:34:02.895Z,13.90
2022-08-11T04:37:13.290Z,13.90
2022-08-11T04:39:59.078Z,13.90
2022-08-11T04:43:18.826Z,13.90
2022-08-11T04:46:05.843Z,13.90
2022-08-11T04:49:25.835Z,13.90
2022-08-11T04:52:38.114Z,13.90
2022-08-11T04:56:02.764Z,14.40
2022-08-11T04:59:07.462Z,14.00
2022-08-11T05:02:16.849Z,14.00
2022-08-11T05:05:31.099Z,14.20
2022-08-11T05:08:25.438Z,14.20
2022-08-11T05:11:10.945Z,14.20
2022-08-11T05:14:04.234Z,14.20
2022-08-11T05:17:14.440Z,14.30
2022-08-11T05:20:05.474Z,14.40
2022-08-11T05:22:53.217Z,14.40
2022-08-11T05:26:43.310Z,14.60
2022-08-11T05:29:19.694Z,14.70
2022-08-11T05:32:15.643Z,14.80
2022-08-11T05:34:54.138Z,14.90
2022-08-11T05:37:38.639Z,15.00
2022-08-11T05:40:32.041Z,15.20
2022-08-11T05:43:20.427Z,15.40
2022-08-11T05:46:17.828Z,15.40
2022-08-11T05:49:03.938Z,15.70
2022-08-11T05:51:57.082Z,15.80
2022-08-11T05:54:46.923Z,16.00
2022-08-11T05:57:39.608Z,16.20
2022-08-11T06:00:11.046Z,16.40
2022-08-11T06:02:49.340Z,16.50
2022-08-11T06:05:19.459Z,16.70
2022-08-11T06:07:50.170Z,17.00
2022-08-11T06:10:33.457Z,17.10
2022-08-11T06:13:01.869Z,17.30
2022-08-11T06:15:31.823Z,17.50
2022-08-11T06:18:01.434Z,17.60
2022-08-11T06:20:36.587Z,17.90
2022-08-11T06:23:06.667Z,18.00
2022-08-11T06:25:35.985Z,18.20
2022-08-11T06:28:05.879Z,18.90
2022-08-11T06:30:39.799Z,18.50
2022-08-11T06:33:11.606Z,18.70
2022-08-11T06:35:46.184Z,18.90
2022-08-11T06:38:35.155Z,19.10
2022-08-11T06:41:26.418Z,19.20
2022-08-11T06:44:13.203Z,19.40
2022-08-11T06:46:46.757Z,19.60
2022-08-11T06:49:34.674Z,19.70
2022-08-11T06:52:35.100Z,19.90
2022-08-11T06:55:57.673Z,20.10
2022-08-11T06:58:23.553Z,20.30
2022-08-11T07:00:58.771Z,20.40
2022-08-11T07:03:29.995Z,20.60
2022-08-11T07:06:29.212Z,20.70
2022-08-11T07:10:22.071Z,21.00
2022-08-11T07:13:44.679Z,21.10
2022-08-11T07:16:12.152Z,21.30
2022-08-11T07:19:01.013Z,21.50
2022-08-11T07:22:03.214Z,21.60
2022-08-11T07:24:59.665Z,21.90
2022-08-11T07:28:01.430Z,22.00
2022-08-11T07:30:29.074Z,22.20
2022-08-11T07:32:59.509Z,22.30
2022-08-11T07:35:49.903Z,22.50
2022-08-11T07:38:25.131Z,22.50
2022-08-11T07:40:52.970Z,22.70
2022-08-11T07:43:20.131Z,22.90
2022-08-11T07:46:06.409Z,23.00
2022-08-11T07:48:53.466Z,23.20
2022-08-11T07:51:39.883Z,23.40
2022-08-11T07:54:15.368Z,23.50
2022-08-11T07:56:55.234Z,23.70
2022-08-11T07:59:58.587Z,23.90
2022-08-11T08:02:58.897Z,24.10
2022-08-11T08:05:44.644Z,24.30
2022-08-11T08:08:32.614Z,24.40
2022-08-11T08:11:23.827Z,24.60
2022-08-11T08:14:14.392Z,24.90
2022-08-11T08:17:00.724Z,25.10
2022-08-11T08:19:28.487Z,25.30
2022-08-11T08:21:55.766Z,25.40
2022-08-11T08:24:41.890Z,25.60
2022-08-11T08:27:12.517Z,25.80
2022-08-11T08:29:58.947Z,26.00
2022-08-11T08:32:27.974Z,26.20
2022-08-11T08:34:57.087Z,26.40
2022-08-11T08:37:45.419Z,26.50
2022-08-11T08:40:13.937Z,26.70
2022-08-11T08:42:53.744Z,26.90
2022-08-11T08:45:22.135Z,27.10
2022-08-11T08:47:53.637Z,27.30
2022-08-11T08:52:22.872Z,26.80
2022-08-11T08:53:11.435Z,28.00
2022-08-11T08:55:45.343Z,27.80
2022-08-11T08:58:13.863Z,27.90
2022-08-11T09:00:44.947Z,28.10
2022-08-11T09:03:39.044Z,28.30
2022-08-11T09:06:00.918Z,28.50
2022-08-11T09:08:30.786Z,28.70
2022-08-11T09:11:17.127Z,28.90
2022-08-11T09:13:46.856Z,29.10
2022-08-11T09:16:32.187Z,29.40
2022-08-11T09:19:01.015Z,29.80
2022-08-11T09:21:48.093Z,30.10
2022-08-11T09:24:33.869Z,30.50
2022-08-11T09:27:06.641Z,30.70
2022-08-11T09:29:34.794Z,31.00
2022-08-11T09:32:01.967Z,31.20
2022-08-11T09:34:29.257Z,31.40
2022-08-11T09:37:53.697Z,31.70
2022-08-11T09:40:27.227Z,31.80
2022-08-11T09:43:14.643Z,32.10
2022-08-11T09:45:44.448Z,32.40
2022-08-11T09:48:12.262Z,32.60
2022-08-11T09:50:40.267Z,32.90
2022-08-11T09:53:37.724Z,33.10
2022-08-11T09:55:55.279Z,33.30
2022-08-11T09:58:41.468Z,33.60
2022-08-11T10:01:27.283Z,33.80
2022-08-11T10:04:00.356Z,34.00
2022-08-11T10:06:48.406Z,34.20
2022-08-11T10:09:24.305Z,34.30
2022-08-11T10:11:59.420Z,34.50
2022-08-11T10:14:48.085Z,34.70
2022-08-11T10:17:18.858Z,34.90
2022-08-11T10:20:05.364Z,35.10
2022-08-11T10:22:53.103Z,35.20
2022-08-11T10:25:39.822Z,35.40
2022-08-11T10:28:28.132Z,35.70
2022-08-11T10:31:16.389Z,35.90
2022-08-11T10:34:01.929Z,36.10
2022-08-11T10:36:49.336Z,36.40
2022-08-11T10:39:22.366Z,36.60
2022-08-11T10:42:12.190Z,36.70
2022-08-11T10:44:50.631Z,36.90
2022-08-11T10:47:37.030Z,37.20
2022-08-11T10:50:32.805Z,37.40
2022-08-11T10:53:19.658Z,37.50
2022-08-11T10:56:06.568Z,37.60
2022-08-11T10:58:45.516Z,37.80
2022-08-11T11:01:14.727Z,38.00
2022-08-11T11:03:42.999Z,38.10
2022-08-11T11:06:35.744Z,38.20
2022-08-11T11:09:10.515Z,38.30
2022-08-11T11:12:01.509Z,38.60
2022-08-11T11:14:58.324Z,38.80
2022-08-11T11:17:56.235Z,38.90
2022-08-11T11:20:34.568Z,39.00
2022-08-11T11:23:27.244Z,39.10
2022-08-11T11:26:14.823Z,39.20
2022-08-11T11:29:12.511Z,39.10
2022-08-11T11:32:16.555Z,39.30
2022-08-11T11:34:53.401Z,39.60
2022-08-11T11:37:25.388Z,39.80
2022-08-11T11:39:54.330Z,39.70
2022-08-11T11:42:22.838Z,39.70
2022-08-11T11:44:55.355Z,39.70
2022-08-11T11:47:23.792Z,40.00
2022-08-11T11:49:51.114Z,40.20
2022-08-11T11:52:21.199Z,40.40
2022-08-11T11:54:55.459Z,40.50
2022-08-11T11:57:41.884Z,40.70
2022-08-11T12:00:44.865Z,40.70
2022-08-11T12:03:13.252Z,40.90
2022-08-11T12:05:43.728Z,41.00
2022-08-11T12:08:16.170Z,41.10
2022-08-11T12:10:48.014Z,41.10
2022-08-11T12:13:36.139Z,41.30
2022-08-11T12:16:33.124Z,41.30
2022-08-11T12:18:56.974Z,41.30
2022-08-11T12:21:25.461Z,41.40
2022-08-11T12:24:13.487Z,41.50
2022-08-11T12:27:14.648Z,41.50
2022-08-11T12:29:41.221Z,41.70
2022-08-11T12:32:11.505Z,41.60
2022-08-11T12:34:38.810Z,41.70
2022-08-11T12:37:13.193Z,41.70
2022-08-11T12:40:43.408Z,41.90
2022-08-11T12:43:38.570Z,42.00
2022-08-11T12:46:14.361Z,42.30
2022-08-11T12:49:07.845Z,42.50
2022-08-11T12:52:10.974Z,42.60
2022-08-11T12:55:13.135Z,42.70
2022-08-11T12:58:04.491Z,42.80
2022-08-11T13:00:51.011Z,42.90
2022-08-11T13:03:39.106Z,43.00
2022-08-11T13:06:07.549Z,43.00
2022-08-11T13:08:37.935Z,43.10
2022-08-11T13:11:23.967Z,43.20
2022-08-11T13:13:57.780Z,43.20
2022-08-11T13:16:29.266Z,43.40
2022-08-11T13:18:59.343Z,43.40
2022-08-11T13:21:27.165Z,43.40
2022-08-11T13:24:00.758Z,43.50
2022-08-11T13:26:43.409Z,43.50
2022-08-11T13:29:21.951Z,43.50
2022-08-11T13:31:52.257Z,43.40
2022-08-11T13:34:20.788Z,43.50
2022-08-11T13:36:57.222Z,43.50
2022-08-11T13:39:27.346Z,43.50
2022-08-11T13:41:57.276Z,43.50
2022-08-11T13:44:30.076Z,43.50
2022-08-11T13:47:04.337Z,43.50
2022-08-11T13:49:33.610Z,43.50
2022-08-11T13:52:01.501Z,43.40
2022-08-11T13:54:31.690Z,43.50
2022-08-11T13:57:09.272Z,43.50
2022-08-11T13:59:51.769Z,43.50
2022-08-11T14:02:29.322Z,43.70
2022-08-11T14:05:01.609Z,43.90
2022-08-11T14:07:35.970Z,44.10
2022-08-11T14:10:06.071Z,44.20
2022-08-11T14:12:54.499Z,44.10
2022-08-11T14:15:25.507Z,43.90
2022-08-11T14:18:08.958Z,43.90
2022-08-11T14:20:59.229Z,43.70
2022-08-11T14:23:34.391Z,43.40
2022-08-11T14:26:20.945Z,43.30
2022-08-11T14:28:48.612Z,43.50
2022-08-11T14:31:16.673Z,43.50
2022-08-11T14:33:59.799Z,43.60
2022-08-11T14:36:39.993Z,43.70
2022-08-11T14:39:19.222Z,43.70
2022-08-11T14:42:12.462Z,43.80
2022-08-11T14:45:02.087Z,43.90
2022-08-11T14:47:33.323Z,43.90
2022-08-11T14:50:10.111Z,44.10
2022-08-11T14:52:44.747Z,44.10
2022-08-11T14:55:31.837Z,44.10
2022-08-11T14:58:00.593Z,44.00
2022-08-11T15:00:28.383Z,43.80
2022-08-11T15:03:12.100Z,43.80
2022-08-11T15:05:57.140Z,43.80
2022-08-11T15:08:47.610Z,43.70
2022-08-11T15:11:34.937Z,43.70
2022-08-11T15:14:04.548Z,43.70
2022-08-11T15:16:50.954Z,43.60
2022-08-11T15:19:21.411Z,43.60
2022-08-11T15:22:08.188Z,43.50
2022-08-11T15:24:37.464Z,43.50
2022-08-11T15:27:38.147Z,43.40
2022-08-11T15:30:33.199Z,43.20
2022-08-11T15:33:26.224Z,43.10
2022-08-11T15:36:14.468Z,43.10
2022-08-11T15:38:54.974Z,43.00
2022-08-11T15:41:58.201Z,42.90
2022-08-11T15:45:04.644Z,42.90
2022-08-11T15:47:44.346Z,42.80
2022-08-11T15:50:19.748Z,42.70
2022-08-11T15:52:54.009Z,42.60
2022-08-11T15:55:23.729Z,42.50
2022-08-11T15:58:12.113Z,42.40
2022-08-11T16:01:04.262Z,42.30
2022-08-11T16:04:09.241Z,42.10
2022-08-11T16:06:47.669Z,41.90
2022-08-11T16:09:21.877Z,41.70
2022-08-11T16:11:51.517Z,41.60
2022-08-11T16:14:38.432Z,41.50
2022-08-11T16:17:10.150Z,41.40
2022-08-11T16:19:39.878Z,41.40
2022-08-11T16:22:12.973Z,41.30
2022-08-11T16:27:02.411Z,41.20
2022-08-11T16:27:35.449Z,41.20
2022-08-11T16:30:05.921Z,41.10
2022-08-11T16:32:35.661Z,41.10
2022-08-11T16:35:26.017Z,41.00
2022-08-11T16:38:14.054Z,40.90
2022-08-11T16:40:42.717Z,40.90
2022-08-11T16:43:33.567Z,40.70
2022-08-11T16:46:22.429Z,40.50
2022-08-11T16:48:52.775Z,40.40
2022-08-11T16:51:21.358Z,40.20
2022-08-11T16:54:04.874Z,40.10
2022-08-11T16:56:35.750Z,39.90
2022-08-11T16:59:18.292Z,39.80
2022-08-11T17:01:53.673Z,39.70
2022-08-11T17:05:04.884Z,39.60
2022-08-11T17:07:50.374Z,39.30
2022-08-11T17:10:56.438Z,39.10
2022-08-11T17:13:43.637Z,38.80
2022-08-11T17:16:13.647Z,38.60
2022-08-11T17:19:16.638Z,38.50
2022-08-11T17:22:06.438Z,38.30
2022-08-11T17:24:40.548Z,38.00
2022-08-11T17:27:16.599Z,37.80
2022-08-11T17:29:54.380Z,37.60
2022-08-11T17:32:56.757Z,37.50
2022-08-11T17:35:33.532Z,37.30
2022-08-11T17:38:06.851Z,37.10
2022-08-11T17:41:03.258Z,37.10
2022-08-11T17:43:49.798Z,36.90
2022-08-11T17:46:37.171Z,36.70
2022-08-11T17:49:07.859Z,36.50
2022-08-11T17:51:54.151Z,36.30
2022-08-11T17:54:41.901Z,36.20
2022-08-11T17:57:28.975Z,36.10
2022-08-11T17:59:57.949Z,35.90
2022-08-11T18:02:56.212Z,35.70
2022-08-11T18:05:34.251Z,35.60
2022-08-11T18:08:23.693Z,35.30
2022-08-11T18:11:10.829Z,35.20
2022-08-11T18:13:59.421Z,35.00
2022-08-11T18:16:44.835Z,34.70
2022-08-11T18:19:31.011Z,34.50
2022-08-11T18:22:25.429Z,34.30
2022-08-11T18:25:19.041Z,34.00
2022-08-11T18:28:07.540Z,33.70
2022-08-11T18:31:03.830Z,33.40
2022-08-11T18:34:07.132Z,33.00
2022-08-11T18:37:00.755Z,32.70
2022-08-11T18:39:56.052Z,32.30
2022-08-11T18:42:43.746Z,32.00
2022-08-11T18:45:39.982Z,31.50
2022-08-11T18:48:35.982Z,31.20
2022-08-11T18:51:30.702Z,30.90
2022-08-11T18:54:26.305Z,30.50
2022-08-11T18:57:14.371Z,30.20
2022-08-11T19:00:02.521Z,30.00
2022-08-11T19:02:51.138Z,29.80
2022-08-11T19:06:31.895Z,29.60
2022-08-11T19:08:50.015Z,29.40
2022-08-11T19:11:42.396Z,29.20
2022-08-11T19:14:31.342Z,29.00
2022-08-11T19:17:44.021Z,28.80
2022-08-11T19:20:29.585Z,28.60
2022-08-11T19:23:17.151Z,28.30
2022-08-11T19:26:04.839Z,28.10
2022-08-11T19:28:52.039Z,27.80
2022-08-11T19:31:43.840Z,27.60
2022-08-11T19:34:34.817Z,27.30
2022-08-11T19:37:24.654Z,27.00
2022-08-11T19:40:13.610Z,26.80
2022-08-11T19:43:01.757Z,26.50
2022-08-11T19:45:52.936Z,26.30
2022-08-11T19:48:44.160Z,26.10
2022-08-11T19:51:30.470Z,25.90
2022-08-11T19:54:16.880Z,25.70
2022-08-11T19:57:04.220Z,25.50
2022-08-11T19:59:51.829Z,25.40
2022-08-11T20:02:38.396Z,25.20
2022-08-11T20:05:25.845Z,25.10
2022-08-11T20:08:14.991Z,25.00
2022-08-11T20:11:03.454Z,24.90
2022-08-11T20:13:50.133Z,24.70
2022-08-11T20:16:38.646Z,24.60
2022-08-11T20:19:56.219Z,24.40
2022-08-11T20:22:34.462Z,24.30
2022-08-11T20:25:21.974Z,24.20
2022-08-11T20:28:08.801Z,24.00
2022-08-11T20:30:55.438Z,23.80
2022-08-11T20:33:42.813Z,23.80
2022-08-11T20:36:30.536Z,23.70
2022-08-11T20:39:18.276Z,23.60
2022-08-11T20:42:05.746Z,23.50
2022-08-11T20:44:53.057Z,23.50
2022-08-11T20:47:56.430Z,23.40
2022-08-11T20:50:46.299Z,23.40
2022-08-11T20:53:35.877Z,23.30
2022-08-11T20:56:28.598Z,23.70
2022-08-11T20:59:18.788Z,23.20
2022-08-11T21:02:10.102Z,23.10
2022-08-11T21:04:57.721Z,23.00
2022-08-11T21:07:57.297Z,22.90
2022-08-11T21:10:53.635Z,22.80
2022-08-11T21:13:43.585Z,22.70
2022-08-11T21:16:35.874Z,22.50
2022-08-11T21:20:06.753Z,22.50
2022-08-11T21:23:24.323Z,22.50
2022-08-11T21:26:15.551Z,22.40
2022-08-11T21:29:02.699Z,22.30
2022-08-11T21:31:50.811Z,22.20
2022-08-11T21:34:39.983Z,22.20
2022-08-11T21:37:27.606Z,22.20
2022-08-11T21:40:17.090Z,22.10
2022-08-11T21:43:06.104Z,22.10
2022-08-11T21:45:53.686Z,22.00
2022-08-11T21:48:41.382Z,22.10
2022-08-11T21:51:26.927Z,22.00
2022-08-11T21:54:13.456Z,22.10
2022-08-11T21:56:59.502Z,22.00
2022-08-11T22:00:09.263Z,21.90
2022-08-11T22:02:58.439Z,22.00
2022-08-11T22:05:48.510Z,21.90
2022-08-11T22:08:34.658Z,21.90
2022-08-11T22:11:32.297Z,21.90
2022-08-11T22:14:19.709Z,21.80
2022-08-11T22:17:04.960Z,21.70
2022-08-11T22:19:51.487Z,21.70
2022-08-11T22:22:52.333Z,21.80
2022-08-11T22:25:50.949Z,21.80
2022-08-11T22:28:37.976Z,21.70
2022-08-11T22:31:25.710Z,21.60
2022-08-11T22:34:11.526Z,21.70
2022-08-11T22:36:58.006Z,21.60
2022-08-11T22:39:46.060Z,21.60
2022-08-11T22:42:47.568Z,21.60
2022-08-11T22:45:33.118Z,21.60
2022-08-11T22:48:20.505Z,21.50
2022-08-11T22:51:06.506Z,21.50
2022-08-11T22:53:54.940Z,21.50
2022-08-11T22:56:48.847Z,21.50
2022-08-11T22:59:36.525Z,21.50
2022-08-11T23:02:23.805Z,21.40
2022-08-11T23:05:10.258Z,21.40
2022-08-11T23:07:56.829Z,21.40
2022-08-11T23:10:43.697Z,21.40
2022-08-11T23:13:29.983Z,21.30
2022-08-11T23:16:16.686Z,21.30
2022-08-11T23:19:04.054Z,21.30
2022-08-11T23:21:50.519Z,21.30
2022-08-11T23:24:36.992Z,21.30
2022-08-11T23:27:24.371Z,21.20
2022-08-11T23:30:12.978Z,21.20
2022-08-11T23:33:03.530Z,21.10
2022-08-11T23:35:55.502Z,20.90
2022-08-11T23:38:42.916Z,21.00
2022-08-11T23:41:29.377Z,21.00
2022-08-11T23:44:15.172Z,21.00
2022-08-11T23:47:02.399Z,20.90
2022-08-11T23:49:49.037Z,20.90
2022-08-11T23:52:35.196Z,20.90
2022-08-11T23:55:21.983Z,20.80
2022-08-11T23:58:08.218Z,20.70
